Winfield, IA

6:53 AM CST on February 10, 2016 (GMT -0600)
KIAMTUNI2 | | Change Station
CLOSE
Current Station
Personal Weather Station
Location: Mt. Union, IA
Elevation: 722 ft
Nearby Weather Stations

Elev 722 ft 41.07 °N, 91.39 °W | Updated 8 minutes ago

Mostly Cloudy
Mostly Cloudy
10.3 °F
Feels Like 2 °F
N
5.0
Wind Variable Wind from WNW
Gusts 9.0 mph

Today
High -- | Low -- °F
--% Chance of Precip.
Yesterday
High -- | Low -- °F
Precip. -- in
Pressure 30.14 in
Visibility 10.0 miles
Clouds Clear
Windchill 2 °F
Dew Point 4 °F
Humidity 74%
Rainfall 0.00 in
Snow Depth Not available.
7:07 AM 5:33 PM
Waxing Crescent, 5% visible
METAR KMPZ 101235Z AUTO 30006KT 10SM CLR M11/M14 A3014 RMK AO2 T11061142
Pressure 30.14 in
Visibility 10.0 miles
Clouds Clear
Windchill 2 °F
Dew Point 4 °F
Humidity 74%
Rainfall 0.00 in
Snow Depth Not available.
7:07 AM 5:33 PM
Waxing Crescent, 5% visible
METAR KMPZ 101235Z AUTO 30006KT 10SM CLR M11/M14 A3014 RMK AO2 T11061142

10-Day Weather Forecast

Almanac

Astronomy

Feb. 10, 2016 Rise Set
Actual Time
Civil Twilight
Nautical Twilight
Astronomical Twilight
Moon
Length of Visible Light
Length of Day
Tomorrow will be .
, % of the Moon is Illuminated

Today's Extremes

State Highs State Lows

Community

WunderPhotos

Upload Photos

1,891,837 photos uploaded!

WunderBlog® & News

Nearby

Air Quality

  Air Quality AQ Index Pollutant
Not available.

Snow Depth

Station Depth Elevation

Earthquake Activity

City Distance Mag. Time & Date
Minimum magnitude displayed is 2.5.

Coastal Water Temperatures

Place Temperature

Stations

Nearby Weather Stations

Station Location Temp. Windchill Dew Point Humidity Wind Precip. Elev Updated Type
                   

Watches & Warnings

There are currently no watches in effect.